Antelope Valley, Nevada Weather observations

Data are for 10 minute period ending at time listed.
 Day   Time   Solar   Ave.   Ave.  Ave.  Vector  Max.   Baro.   Total    
  of    of     Rad.   Air    Rel.  Wind   Wind   Wind  Press.  Precip.   
Year   Day            Temp.  Hum.  Speed  Dir.   Gust                    
2015   (PST)  Kw/m2    F      %     mph   deg.    mph    mb.     in.     
-------------------------------------------------------------------------
 143    2:30   0.00   48.1    92    5.4   176     7.5   849.3    0.00 
 143    2:40   0.00   48.1    91    6.3   173     8.8   849.3    0.00 
 143    2:50   0.00   48.2    90    6.6   183    10.4   849.3    0.00 
 143    3:00   0.00   48.1    90    5.9   183     9.5   849.2    0.00 
 143    3:10   0.00   48.1    90    5.0   197     7.7   849.3    0.00 
 143    3:20   0.00   48.0    90    6.6   195     9.2   849.3    0.00 
 143    3:30   0.00   47.9    91    5.4   206     8.8   849.3    0.00 
 143    3:40   0.00   47.9    91    5.0   200     7.4   849.3    0.00 
 143    3:50   0.00   47.9    91    3.1   181     4.5   849.2    0.00 
 143    4:00   0.00   48.0    91    3.5   177     4.7   849.2    0.00 
 143    4:10   0.00   48.0    91    3.9   184     6.9   849.2    0.00 
 143    4:20   0.00   48.1    90    5.5   176     9.6   849.1    0.00 
 143    4:30   0.00   48.2    90    5.4   180     8.0   849.1    0.00 
 143    4:40   0.00   48.2    90    5.6   180     7.7   849.1    0.00 
 143    4:50   0.01   48.2    90    5.6   178     7.5   849.3    0.00 
 143    5:00   0.01   48.3    89    5.4   176     7.4   849.4    0.00 
 143    5:10   0.01   48.2    90    4.9   178     6.5   849.4    0.00 
 143    5:20   0.02   48.2    90    5.8   175     8.3   849.4    0.00 
 143    5:30   0.02   48.3    90    6.1   182     8.4   849.4    0.00 
 143    5:40   0.02   48.4    90    5.6   189     7.5   849.5    0.00 
 143    5:50   0.04   48.6    90    6.1   188     8.2   849.6    0.00 
 143    6:00   0.06   48.9    90    5.6   191     7.6   849.6    0.00 
 143    6:10   0.06   49.1    90    6.0   194     8.3   849.6    0.00 
 143    6:20   0.05   49.3    89    6.2   192     8.4   849.7    0.00 
 143    6:30   0.05   49.7    89    5.4   190     8.3   849.7    0.00 
 143    6:40   0.08   49.9    88    6.7   197     9.1   849.8    0.00 
 143    6:50   0.09   50.1    89    5.4   208     8.3   849.9    0.00 
 143    7:00   0.08   50.2    89    4.7   211     6.4   850.0    0.00 
 143    7:10   0.12   50.7    89    5.4   212     8.3   850.0    0.00 
 143    7:20   0.18   51.0    88    6.4   207     8.7   850.1    0.00 
 143    7:30   0.16   51.5    86    6.6   203     9.6   850.1    0.00 
 143    7:40   0.17   51.7    84    7.3   220    10.1   850.2    0.00 
 143    7:50   0.12   51.9    84    5.1   222     8.2   850.2    0.00 
 143    8:00   0.12   51.8    84    5.7   208     8.7   850.2    0.00 
 143    8:10   0.15   52.0    84    4.7   212     7.1   850.2    0.00 
 143    8:20   0.17   52.5    83    5.8   219     8.6   850.2    0.00 
 143    8:30   0.22   52.9    83    5.4   220     7.7   850.2    0.00 
 143    8:40   0.47   53.9    81    6.8   233    11.0   850.2    0.00 
 143    8:50   0.46   55.3    76    5.4   252     8.5   850.1    0.00 
 143    9:00   0.47   55.2    78    6.1   260     8.8   850.1    0.00 
 143    9:10   0.60   54.9    77    6.4   246     9.3   850.1    0.00 
 143    9:20   0.45   55.0    75    5.0   236     8.8   850.1    0.00 
 143    9:30   0.26   55.1    75    4.3   210     7.8   850.1    0.00 
 143    9:40   0.12   54.7    73    2.5   198     4.6   850.2    0.00 
 143    9:50   0.11   54.6    73    1.9   124     5.6   850.2    0.01 
 143   10:00   0.15   53.3    81    4.3   116     5.8   850.2    0.00 
 143   10:10   0.14   53.2    81    2.6   132     4.3   850.2    0.01 
 143   10:20   0.19   53.3    80    3.4   247     7.3   850.2    0.01 
 143   10:30   0.26   54.0    73    3.5   301     6.4   850.2    0.00 
 143   10:40   0.53   54.7    75    3.2   258     5.0   850.1    0.00 
 143   10:50   0.23   55.4    69    1.7    15     3.1   850.1    0.03 
 143   11:00   0.15   55.0    73    1.2    98     4.4   850.0    0.01 
 143   11:10   0.13   54.3    75    2.9   239     4.2   850.1    0.02 
 143   11:20   0.25   53.9    77    3.9   217     5.8   850.0    0.01 
 143   11:30   0.65   54.8    75    4.2   217     6.1   849.9    0.00 
 143   11:40   1.10   57.5    72    4.7   217     7.6   849.7    0.00 
 143   11:50   1.09   58.9    70    4.0   216     8.4   849.6    0.00 
 143   12:00   0.37   58.5    68    4.2   231     7.9   849.5    0.00 
 143   12:10   0.14   56.0    76    8.8   267    13.4   849.6    0.00 
 143   12:20   0.09   53.5    81    8.7   290    12.6   850.0    0.12 
 143   12:30   0.11   51.7    82    5.8   214     7.9   849.9    0.04 
 143   12:40   0.15   52.5    82    5.2   230     7.7   849.9    0.00 
 143   12:50   0.15   52.9    83    5.3   224     7.9   849.9    0.00 
 143   13:00   0.14   53.4    85    6.9   232     9.6   849.9    0.00 
 143   13:10   0.17   53.6    84    7.2   254    11.7   849.9    0.00 
 143   13:20   0.38   53.9    82    8.6   258    12.0   849.9    0.00 
 143   13:30   0.74   55.7    79    8.8   255    11.7   849.9    0.00 
 143   13:40   0.34   55.6    75    7.6   254    10.4   849.9    0.00 
 143   13:50   0.49   55.2    78    6.6   248     9.5   849.9    0.00 
 143   14:00   0.50   55.9    77    6.2   233     8.6   849.7    0.00 
 143   14:10   0.30   55.9    77    6.7   226     9.1   849.6    0.00 
 143   14:20   0.34   55.7    78    6.6   229     9.3   849.5    0.00 
 143   14:30   0.62   57.3    73    6.5   210     9.6   849.5    0.00 
 143   14:40   0.12   57.8    72    2.4   203     7.6   849.6    0.00 
 143   14:50   0.12   57.4    70    4.6     4     9.3   849.7    0.00 
 143   15:00   0.07   55.0    80    8.8   343    11.9   849.9    0.00 
 143   15:10   0.06   53.1    83    4.7   334    10.2   849.9    0.00 
 143   15:20   0.08   53.5    84    3.6   303     6.6   849.8    0.00 
 143   15:30   0.15   53.7    84    4.9   281     7.2   849.9    0.00 
 143   15:40   0.14   53.9    84    4.3   246     7.0   849.9    0.00 
 143   15:50   0.16   54.1    82    4.1   248     6.1   849.9    0.00 
 143   16:00   0.14   54.1    80    4.3   211     7.2   849.9    0.00 
 143   16:10   0.08   54.0    84    5.3   208     7.4   849.9    0.00 
 143   16:20   0.04   53.5    83    4.2   218     6.1   849.9    0.01 
 143   16:30   0.01   53.2    86    2.5   203     4.9   850.0    0.00 
 143   16:40   0.01   52.5    84    7.9   105    12.3   850.2    0.13 
 143   16:50   0.03   50.2    83    8.4   105    16.7   850.2    0.08 
 143   17:00   0.07   52.2    78    2.2    31     4.4   850.2    0.00 
 143   17:10   0.13   52.0    80    2.8   172     5.0   850.2    0.00 
 143   17:20   0.15   51.8    85    5.1   178     7.8   850.2    0.00 
 143   17:30   0.14   52.2    86    5.8   172     8.6   850.2    0.00 
 143   17:40   0.13   52.5    85    5.3   170     6.9   850.2    0.00 
 143   17:50   0.13   52.7    85    4.9   161     7.2   850.2    0.00 
 143   18:00   0.12   53.0    84    4.4   160     6.0   850.2    0.00 
 143   18:10   0.10   52.9    83    5.0   166     7.4   850.2    0.00 
 143   18:20   0.09   53.0    84    5.4   149     7.9   850.2    0.00 
 143   18:30   0.10   53.2    86    5.9   164     8.3   850.2    0.00 
 143   18:40   0.06   53.5    87    4.9   198     6.9   850.2    0.00 
 143   18:50   0.03   52.3    88    5.5   176     8.0   850.3    0.00 
 143   19:00   0.01   51.3    88    5.1   177     6.5   850.3    0.00 
 143   19:10   0.01   50.9    89    4.9   176     6.9   850.4    0.00 
 143   19:20   0.01   50.4    90    5.4   171     7.3   850.4    0.00 
 143   19:30   0.00   50.1    90    5.8   173     7.7   850.4    0.00 
 143   19:40   0.00   50.1    90    5.6   168     7.8   850.5    0.00 
 143   19:50   0.00   50.2    89    6.6   166     9.3   850.5    0.00 
 143   20:00   0.00   50.2    88    6.5   175     8.3   850.6    0.00 
 143   20:10   0.00   50.1    88    5.6   180     7.7   850.7    0.00 
 143   20:20   0.00   50.0    87    5.2   188     7.1   850.9    0.00 
 143   20:30   0.00   49.9    87    5.6   188     8.5   850.9    0.00 
 143   20:40   0.00   49.6    88    5.5   203     7.4   851.0    0.00 
 143   20:50   0.00   49.7    88    4.0   210     7.4   851.2    0.00 
 143   21:00   0.00   49.5    89    3.0   235     4.0   851.3    0.00 
 143   21:10   0.00   49.5    91    3.4   261     4.6   851.4    0.00 
 143   21:20   0.00   49.8    91    2.8   276     4.5   851.5    0.00 
 143   21:30   0.00   49.9    91    7.3    34    14.4   851.8    0.09 
 143   21:40   0.00   49.5    90    3.6    66     5.9   851.7    0.05 
 143   21:50   0.00   49.3    91    4.2   124     5.3   851.6    0.06 
 143   22:00   0.00   49.2    92    1.8   110     4.5   851.5    0.01 
 143   22:10   0.00   49.2    92    3.0   165     5.5   851.5    0.01 
 143   22:20   0.00   49.3    92    2.0   190     4.9   851.5    0.01 
 143   22:30   0.00   49.3    92    0.8   316     2.8   851.5    0.00 
 143   22:40   0.00   49.1    92    2.3   313     4.3   851.5    0.00 
 143   22:50   0.00   48.8    92    2.8   289     4.4   851.4    0.00 
 143   23:00   0.00   48.4    92    2.8   262     3.5   851.4    0.00 
 143   23:10   0.00   47.9    92    2.5   248     2.9   851.4    0.00 
 143   23:20   0.00   47.7    93    2.4   229     2.9   851.3    0.00 
 143   23:30   0.00   47.4    93    2.7   207     3.1   851.2    0.00 
 143   23:40   0.00   46.4    93    2.7   223     3.4   851.2    0.00 
 143   23:50   0.00   45.9    94    2.3   205     2.9   851.1    0.00 
 144    0:00   0.00   45.8    94    3.2   198     4.2   851.0    0.00 
 144    0:10   0.00   45.3    94    3.4   194     3.9   851.1    0.00 
 144    0:20   0.00   45.6    95    3.2   189     3.5   851.1    0.00 
 144    0:30   0.00   46.0    95    2.8   152     3.2   851.2    0.00 
 144    0:40   0.00   46.7    95    3.2   173     4.2   851.2    0.00 
 144    0:50   0.00   46.4    95    2.7   184     3.7   851.2    0.00 
 144    1:00   0.00   46.4    95    3.6   175     4.2   851.2    0.00 
 144    1:10   0.00   47.1    95    3.9   169     5.0   851.1    0.00 
 144    1:20   0.00   47.2    95    4.2   168     5.3   851.1    0.00 
 144    1:30   0.00   47.5    95    4.2   153     5.7   851.2    0.00 
 144    1:40   0.00   47.8    95    4.3   148     5.7   851.2    0.00 
 144    1:50   0.00   48.0    95    4.3   151     5.6   851.0    0.00 
 144    2:00   0.00   48.0    95    3.7   148     4.5   851.0    0.00 
 144    2:10   0.00   47.9    95    4.0   154     5.4   851.0    0.00 
 144    2:20   0.00   48.0    95    2.8   181     5.1   851.1    0.00 

Return to Antelope Valley graphs page.


Western Regional Climate Center,wrcc@dri.edu